sensor_id;sensor_type;location;lat;lon;timestamp;temperature;humidity
16479;DHT22;8350;52.316;10.530;2023-02-28T00:00:36;-1.60;1.00
16479;DHT22;8350;52.316;10.530;2023-02-28T00:03:05;-1.60;1.00
16479;DHT22;8350;52.316;10.530;2023-02-28T00:05:33;-1.70;1.00
16479;DHT22;8350;52.316;10.530;2023-02-28T00:08:00;-1.60;1.00
16479;DHT22;8350;52.316;10.530;2023-02-28T00:10:28;-1.60;1.00
16479;DHT22;8350;52.316;10.530;2023-02-28T00:12:59;-1.70;1.00
16479;DHT22;8350;52.316;10.530;2023-02-28T00:15:28;-1.80;1.00
16479;DHT22;8350;52.316;10.530;2023-02-28T00:17:55;-2.00;1.00
16479;DHT22;8350;52.316;10.530;2023-02-28T00:20:22;-2.10;1.00
16479;DHT22;8350;52.316;10.530;2023-02-28T00:22:50;-2.30;1.00
16479;DHT22;8350;52.316;10.530;2023-02-28T00:25:19;-2.40;1.00
16479;DHT22;8350;52.316;10.530;2023-02-28T00:27:47;-2.40;1.00
16479;DHT22;8350;52.316;10.530;2023-02-28T00:30:16;-2.50;1.00
16479;DHT22;8350;52.316;10.530;2023-02-28T00:32:45;-2.60;1.00
16479;DHT22;8350;52.316;10.530;2023-02-28T00:35:14;-2.80;1.00
16479;DHT22;8350;52.316;10.530;2023-02-28T00:37:42;-2.90;1.00
16479;DHT22;8350;52.316;10.530;2023-02-28T00:40:10;-3.00;1.00
16479;DHT22;8350;52.316;10.530;2023-02-28T00:42:38;-3.10;1.00
16479;DHT22;8350;52.316;10.530;2023-02-28T00:45:06;-3.00;1.00
16479;DHT22;8350;52.316;10.530;2023-02-28T00:47:33;-2.80;1.00
16479;DHT22;8350;52.316;10.530;2023-02-28T00:50:03;-2.80;1.00
16479;DHT22;8350;52.316;10.530;2023-02-28T00:52:30;-2.70;1.00
16479;DHT22;8350;52.316;10.530;2023-02-28T00:54:56;-2.70;1.00
16479;DHT22;8350;52.316;10.530;2023-02-28T00:57:26;-2.80;1.00
16479;DHT22;8350;52.316;10.530;2023-02-28T00:59:53;-2.90;1.00
16479;DHT22;8350;52.316;10.530;2023-02-28T01:02:22;-3.00;1.00
16479;DHT22;8350;52.316;10.530;2023-02-28T01:04:49;-3.00;1.00
16479;DHT22;8350;52.316;10.530;2023-02-28T01:07:18;-3.10;1.00
16479;DHT22;8350;52.316;10.530;2023-02-28T01:09:44;-3.00;1.00
16479;DHT22;8350;52.316;10.530;2023-02-28T01:12:11;-3.00;1.00
16479;DHT22;8350;52.316;10.530;2023-02-28T01:14:38;-3.00;1.00
16479;DHT22;8350;52.316;10.530;2023-02-28T01:17:05;-3.00;1.00
16479;DHT22;8350;52.316;10.530;2023-02-28T01:19:32;-3.00;1.00
16479;DHT22;8350;52.316;10.530;2023-02-28T01:22:01;-2.90;1.00
16479;DHT22;8350;52.316;10.530;2023-02-28T01:24:29;-2.90;1.00
16479;DHT22;8350;52.316;10.530;2023-02-28T01:26:56;-3.00;1.00
16479;DHT22;8350;52.316;10.530;2023-02-28T01:29:23;-3.00;1.00
16479;DHT22;8350;52.316;10.530;2023-02-28T01:31:50;-2.90;1.00
16479;DHT22;8350;52.316;10.530;2023-02-28T01:34:17;-2.90;1.00
16479;DHT22;8350;52.316;10.530;2023-02-28T01:36:45;-2.80;1.00
16479;DHT22;8350;52.316;10.530;2023-02-28T01:39:12;-2.80;1.00
16479;DHT22;8350;52.316;10.530;2023-02-28T01:41:41;-2.80;1.00
16479;DHT22;8350;52.316;10.530;2023-02-28T01:47:08;-2.80;1.00
16479;DHT22;8350;52.316;10.530;2023-02-28T01:49:35;-2.80;1.00
16479;DHT22;8350;52.316;10.530;2023-02-28T01:52:03;-2.90;1.00
16479;DHT22;8350;52.316;10.530;2023-02-28T01:54:32;-2.90;1.00
16479;DHT22;8350;52.316;10.530;2023-02-28T01:57:07;-2.90;1.00
16479;DHT22;8350;52.316;10.530;2023-02-28T01:59:45;-2.90;1.00
16479;DHT22;8350;52.316;10.530;2023-02-28T02:02:17;-2.90;1.00
16479;DHT22;8350;52.316;10.530;2023-02-28T02:04:50;-3.00;1.00
16479;DHT22;8350;52.316;10.530;2023-02-28T02:07:20;-3.20;1.00
16479;DHT22;8350;52.316;10.530;2023-02-28T02:09:47;-3.30;1.00
16479;DHT22;8350;52.316;10.530;2023-02-28T02:12:27;-3.30;1.00
16479;DHT22;8350;52.316;10.530;2023-02-28T02:15:01;-3.40;1.00
16479;DHT22;8350;52.316;10.530;2023-02-28T02:17:35;-3.40;1.00
16479;DHT22;8350;52.316;10.530;2023-02-28T02:20:37;-3.40;1.00
16479;DHT22;8350;52.316;10.530;2023-02-28T02:23:40;-3.30;1.00
16479;DHT22;8350;52.316;10.530;2023-02-28T02:29:48;-3.20;1.00
16479;DHT22;8350;52.316;10.530;2023-02-28T02:32:33;-3.10;1.00
16479;DHT22;8350;52.316;10.530;2023-02-28T02:35:12;-3.10;1.00
16479;DHT22;8350;52.316;10.530;2023-02-28T02:37:44;-3.10;1.00
16479;DHT22;8350;52.316;10.530;2023-02-28T02:40:17;-3.10;1.00
16479;DHT22;8350;52.316;10.530;2023-02-28T02:42:50;-3.10;1.00
16479;DHT22;8350;52.316;10.530;2023-02-28T02:45:20;-3.10;1.00
16479;DHT22;8350;52.316;10.530;2023-02-28T02:47:50;-3.10;1.00
16479;DHT22;8350;52.316;10.530;2023-02-28T02:50:22;-3.10;1.00
16479;DHT22;8350;52.316;10.530;2023-02-28T02:52:53;-3.10;1.00
16479;DHT22;8350;52.316;10.530;2023-02-28T02:55:22;-3.20;1.00
16479;DHT22;8350;52.316;10.530;2023-02-28T02:57:53;-3.10;1.00
16479;DHT22;8350;52.316;10.530;2023-02-28T03:00:23;-3.10;1.00
16479;DHT22;8350;52.316;10.530;2023-02-28T03:02:53;-3.00;1.00
16479;DHT22;8350;52.316;10.530;2023-02-28T03:05:26;-3.00;1.00
16479;DHT22;8350;52.316;10.530;2023-02-28T03:07:54;-3.00;2.20
16479;DHT22;8350;52.316;10.530;2023-02-28T03:10:33;-2.90;4.90
16479;DHT22;8350;52.316;10.530;2023-02-28T03:13:32;-2.90;7.90
16479;DHT22;8350;52.316;10.530;2023-02-28T03:16:14;-2.70;12.90
16479;DHT22;8350;52.316;10.530;2023-02-28T03:18:53;-2.50;9.80
16479;DHT22;8350;52.316;10.530;2023-02-28T03:21:28;-2.50;1.30
16479;DHT22;8350;52.316;10.530;2023-02-28T03:24:04;-2.60;1.00
16479;DHT22;8350;52.316;10.530;2023-02-28T03:26:34;-2.60;1.00
16479;DHT22;8350;52.316;10.530;2023-02-28T03:29:07;-2.60;1.00
16479;DHT22;8350;52.316;10.530;2023-02-28T03:31:40;-2.40;2.80
16479;DHT22;8350;52.316;10.530;2023-02-28T03:34:10;-2.40;1.00
16479;DHT22;8350;52.316;10.530;2023-02-28T03:36:43;-2.40;1.00
16479;DHT22;8350;52.316;10.530;2023-02-28T03:39:18;-2.30;1.00
16479;DHT22;8350;52.316;10.530;2023-02-28T03:41:49;-2.20;1.00
16479;DHT22;8350;52.316;10.530;2023-02-28T03:44:22;-2.30;1.00
16479;DHT22;8350;52.316;10.530;2023-02-28T03:46:56;-2.40;1.00
16479;DHT22;8350;52.316;10.530;2023-02-28T03:49:26;-2.30;1.00
16479;DHT22;8350;52.316;10.530;2023-02-28T03:51:56;-2.40;1.00
16479;DHT22;8350;52.316;10.530;2023-02-28T03:54:30;-2.40;1.00
16479;DHT22;8350;52.316;10.530;2023-02-28T03:57:00;-2.40;1.00
16479;DHT22;8350;52.316;10.530;2023-02-28T03:59:34;-2.40;1.00
16479;DHT22;8350;52.316;10.530;2023-02-28T04:02:03;-2.40;1.00
16479;DHT22;8350;52.316;10.530;2023-02-28T04:04:30;-2.40;1.00
16479;DHT22;8350;52.316;10.530;2023-02-28T04:07:12;-2.50;1.00
16479;DHT22;8350;52.316;10.530;2023-02-28T04:09:39;-2.60;1.00
16479;DHT22;8350;52.316;10.530;2023-02-28T04:12:06;-2.60;1.00
16479;DHT22;8350;52.316;10.530;2023-02-28T04:14:33;-2.60;1.00
16479;DHT22;8350;52.316;10.530;2023-02-28T04:17:00;-2.70;1.00
16479;DHT22;8350;52.316;10.530;2023-02-28T04:19:27;-2.70;1.00
16479;DHT22;8350;52.316;10.530;2023-02-28T04:21:54;-2.70;1.00
16479;DHT22;8350;52.316;10.530;2023-02-28T04:24:25;-2.70;3.40
16479;DHT22;8350;52.316;10.530;2023-02-28T04:26:54;-2.70;6.20
16479;DHT22;8350;52.316;10.530;2023-02-28T04:29:23;-2.70;6.90
16479;DHT22;8350;52.316;10.530;2023-02-28T04:31:50;-2.60;8.80
16479;DHT22;8350;52.316;10.530;2023-02-28T04:34:19;-2.60;5.50
16479;DHT22;8350;52.316;10.530;2023-02-28T04:36:46;-2.60;4.00
16479;DHT22;8350;52.316;10.530;2023-02-28T04:39:18;-2.60;3.60
16479;DHT22;8350;52.316;10.530;2023-02-28T04:41:48;-2.60;1.00
16479;DHT22;8350;52.316;10.530;2023-02-28T04:44:15;-2.60;1.00
16479;DHT22;8350;52.316;10.530;2023-02-28T04:46:43;-2.50;1.00
16479;DHT22;8350;52.316;10.530;2023-02-28T04:49:11;-2.50;1.00
16479;DHT22;8350;52.316;10.530;2023-02-28T04:51:38;-2.30;1.00
16479;DHT22;8350;52.316;10.530;2023-02-28T04:54:05;-2.40;1.00
16479;DHT22;8350;52.316;10.530;2023-02-28T04:56:32;-2.50;1.00
16479;DHT22;8350;52.316;10.530;2023-02-28T04:59:02;-2.50;1.00
16479;DHT22;8350;52.316;10.530;2023-02-28T05:01:35;-2.50;1.00
16479;DHT22;8350;52.316;10.530;2023-02-28T05:04:03;-2.50;1.00
16479;DHT22;8350;52.316;10.530;2023-02-28T05:06:31;-2.50;1.00
16479;DHT22;8350;52.316;10.530;2023-02-28T05:09:04;-2.50;1.00
16479;DHT22;8350;52.316;10.530;2023-02-28T05:11:33;-2.50;1.00
16479;DHT22;8350;52.316;10.530;2023-02-28T05:14:02;-2.60;1.00
16479;DHT22;8350;52.316;10.530;2023-02-28T05:16:29;-2.60;1.00
16479;DHT22;8350;52.316;10.530;2023-02-28T05:19:02;-2.70;1.00
16479;DHT22;8350;52.316;10.530;2023-02-28T05:21:31;-2.80;1.00
16479;DHT22;8350;52.316;10.530;2023-02-28T05:24:00;-2.80;1.00
16479;DHT22;8350;52.316;10.530;2023-02-28T05:26:27;-2.90;1.00
16479;DHT22;8350;52.316;10.530;2023-02-28T05:28:55;-2.90;1.00
16479;DHT22;8350;52.316;10.530;2023-02-28T05:31:23;-3.00;1.00
16479;DHT22;8350;52.316;10.530;2023-02-28T05:33:50;-3.00;1.00
16479;DHT22;8350;52.316;10.530;2023-02-28T05:36:18;-3.00;1.00
16479;DHT22;8350;52.316;10.530;2023-02-28T05:38:46;-3.10;1.00
16479;DHT22;8350;52.316;10.530;2023-02-28T05:41:14;-3.10;1.00
16479;DHT22;8350;52.316;10.530;2023-02-28T05:43:41;-3.10;1.00
16479;DHT22;8350;52.316;10.530;2023-02-28T05:46:09;-3.20;1.00
16479;DHT22;8350;52.316;10.530;2023-02-28T05:48:39;-3.10;1.00
16479;DHT22;8350;52.316;10.530;2023-02-28T05:51:07;-3.20;1.00
16479;DHT22;8350;52.316;10.530;2023-02-28T05:53:34;-3.20;1.00
16479;DHT22;8350;52.316;10.530;2023-02-28T05:56:02;-3.30;1.00
16479;DHT22;8350;52.316;10.530;2023-02-28T05:58:29;-3.30;1.00
16479;DHT22;8350;52.316;10.530;2023-02-28T06:00:56;-3.30;1.00
16479;DHT22;8350;52.316;10.530;2023-02-28T06:03:23;-3.30;1.00
16479;DHT22;8350;52.316;10.530;2023-02-28T06:05:52;-3.30;1.00
16479;DHT22;8350;52.316;10.530;2023-02-28T06:08:19;-3.20;1.00
16479;DHT22;8350;52.316;10.530;2023-02-28T06:10:54;-3.30;1.00
16479;DHT22;8350;52.316;10.530;2023-02-28T06:13:21;-3.50;1.00
16479;DHT22;8350;52.316;10.530;2023-02-28T06:15:48;-3.50;1.00
16479;DHT22;8350;52.316;10.530;2023-02-28T06:18:15;-3.50;1.00
16479;DHT22;8350;52.316;10.530;2023-02-28T06:20:42;-3.40;1.00
16479;DHT22;8350;52.316;10.530;2023-02-28T06:23:10;-3.40;1.00
16479;DHT22;8350;52.316;10.530;2023-02-28T06:25:37;-3.50;1.00
16479;DHT22;8350;52.316;10.530;2023-02-28T06:28:04;-3.50;1.00
16479;DHT22;8350;52.316;10.530;2023-02-28T06:30:31;-3.50;1.00
16479;DHT22;8350;52.316;10.530;2023-02-28T06:32:59;-3.40;1.00
16479;DHT22;8350;52.316;10.530;2023-02-28T06:35:26;-3.40;1.00
16479;DHT22;8350;52.316;10.530;2023-02-28T06:37:53;-3.60;1.00
16479;DHT22;8350;52.316;10.530;2023-02-28T06:40:23;-3.40;1.00
16479;DHT22;8350;52.316;10.530;2023-02-28T06:42:50;-3.30;1.00
16479;DHT22;8350;52.316;10.530;2023-02-28T06:45:17;-3.20;1.00
16479;DHT22;8350;52.316;10.530;2023-02-28T06:47:44;-3.30;1.00
16479;DHT22;8350;52.316;10.530;2023-02-28T06:50:18;-2.90;1.00
16479;DHT22;8350;52.316;10.530;2023-02-28T06:52:46;-2.10;1.00
16479;DHT22;8350;52.316;10.530;2023-02-28T06:55:13;-1.00;1.00
16479;DHT22;8350;52.316;10.530;2023-02-28T06:57:41;0.10;1.00
16479;DHT22;8350;52.316;10.530;2023-02-28T07:00:10;0.80;1.00
16479;DHT22;8350;52.316;10.530;2023-02-28T07:02:38;1.50;1.00
16479;DHT22;8350;52.316;10.530;2023-02-28T07:05:05;2.00;99.90
16479;DHT22;8350;52.316;10.530;2023-02-28T07:07:32;2.30;99.90
16479;DHT22;8350;52.316;10.530;2023-02-28T07:10:03;2.50;99.90
16479;DHT22;8350;52.316;10.530;2023-02-28T07:12:29;2.60;99.90
16479;DHT22;8350;52.316;10.530;2023-02-28T07:15:01;2.30;99.90
16479;DHT22;8350;52.316;10.530;2023-02-28T07:17:28;1.90;99.90
16479;DHT22;8350;52.316;10.530;2023-02-28T07:19:55;1.60;1.00
16479;DHT22;8350;52.316;10.530;2023-02-28T07:22:22;1.30;1.00
16479;DHT22;8350;52.316;10.530;2023-02-28T07:24:50;1.00;1.00
16479;DHT22;8350;52.316;10.530;2023-02-28T07:27:17;0.90;1.00
16479;DHT22;8350;52.316;10.530;2023-02-28T07:29:49;0.60;1.00
16479;DHT22;8350;52.316;10.530;2023-02-28T07:32:17;0.40;1.00
16479;DHT22;8350;52.316;10.530;2023-02-28T07:34:44;0.30;1.00
16479;DHT22;8350;52.316;10.530;2023-02-28T07:37:22;0.30;1.00
16479;DHT22;8350;52.316;10.530;2023-02-28T07:39:49;0.20;1.00
16479;DHT22;8350;52.316;10.530;2023-02-28T07:42:16;0.20;1.00
16479;DHT22;8350;52.316;10.530;2023-02-28T07:44:43;0.30;1.00
16479;DHT22;8350;52.316;10.530;2023-02-28T07:47:10;0.30;1.00
16479;DHT22;8350;52.316;10.530;2023-02-28T07:49:39;0.30;1.00
16479;DHT22;8350;52.316;10.530;2023-02-28T07:52:07;0.30;1.00
16479;DHT22;8350;52.316;10.530;2023-02-28T07:54:36;0.40;1.00
16479;DHT22;8350;52.316;10.530;2023-02-28T07:57:03;0.40;1.00
16479;DHT22;8350;52.316;10.530;2023-02-28T07:59:30;0.50;1.00
16479;DHT22;8350;52.316;10.530;2023-02-28T08:01:57;0.60;1.00
16479;DHT22;8350;52.316;10.530;2023-02-28T08:04:24;0.70;1.00
16479;DHT22;8350;52.316;10.530;2023-02-28T08:06:52;0.70;1.00
16479;DHT22;8350;52.316;10.530;2023-02-28T08:09:19;0.80;1.00
16479;DHT22;8350;52.316;10.530;2023-02-28T08:11:47;0.90;1.00
16479;DHT22;8350;52.316;10.530;2023-02-28T08:14:14;0.90;1.00
16479;DHT22;8350;52.316;10.530;2023-02-28T08:16:42;0.90;1.00
16479;DHT22;8350;52.316;10.530;2023-02-28T08:19:09;1.00;1.00
16479;DHT22;8350;52.316;10.530;2023-02-28T08:21:36;1.00;1.00
16479;DHT22;8350;52.316;10.530;2023-02-28T08:24:05;1.00;1.00
16479;DHT22;8350;52.316;10.530;2023-02-28T08:26:32;1.00;1.00
16479;DHT22;8350;52.316;10.530;2023-02-28T08:28:59;1.20;1.00
16479;DHT22;8350;52.316;10.530;2023-02-28T08:31:26;1.20;1.00
16479;DHT22;8350;52.316;10.530;2023-02-28T08:33:53;1.30;1.00
16479;DHT22;8350;52.316;10.530;2023-02-28T08:36:25;1.40;1.00
16479;DHT22;8350;52.316;10.530;2023-02-28T08:38:54;1.40;1.00
16479;DHT22;8350;52.316;10.530;2023-02-28T08:41:22;1.50;1.00
16479;DHT22;8350;52.316;10.530;2023-02-28T08:43:49;1.60;1.00
16479;DHT22;8350;52.316;10.530;2023-02-28T08:46:17;1.80;1.00
16479;DHT22;8350;52.316;10.530;2023-02-28T08:48:44;1.90;1.00
16479;DHT22;8350;52.316;10.530;2023-02-28T08:51:12;2.00;1.00
16479;DHT22;8350;52.316;10.530;2023-02-28T08:53:41;2.10;1.00
16479;DHT22;8350;52.316;10.530;2023-02-28T08:56:14;2.20;1.00
16479;DHT22;8350;52.316;10.530;2023-02-28T08:58:43;2.20;1.00
16479;DHT22;8350;52.316;10.530;2023-02-28T09:01:13;2.30;1.00
16479;DHT22;8350;52.316;10.530;2023-02-28T09:03:41;2.30;1.00
16479;DHT22;8350;52.316;10.530;2023-02-28T09:06:11;2.40;1.00
16479;DHT22;8350;52.316;10.530;2023-02-28T09:08:41;2.50;1.00
16479;DHT22;8350;52.316;10.530;2023-02-28T09:11:09;2.50;1.00
16479;DHT22;8350;52.316;10.530;2023-02-28T09:13:36;2.50;1.00
16479;DHT22;8350;52.316;10.530;2023-02-28T09:16:07;2.50;1.00
16479;DHT22;8350;52.316;10.530;2023-02-28T09:18:35;2.60;1.00
16479;DHT22;8350;52.316;10.530;2023-02-28T09:21:03;2.80;1.00
16479;DHT22;8350;52.316;10.530;2023-02-28T09:23:30;2.90;1.00
16479;DHT22;8350;52.316;10.530;2023-02-28T09:26:05;3.10;1.00
16479;DHT22;8350;52.316;10.530;2023-02-28T09:28:32;3.20;1.00
16479;DHT22;8350;52.316;10.530;2023-02-28T09:30:59;3.40;1.00
16479;DHT22;8350;52.316;10.530;2023-02-28T09:33:27;3.50;1.00
16479;DHT22;8350;52.316;10.530;2023-02-28T09:35:59;3.60;1.00
16479;DHT22;8350;52.316;10.530;2023-02-28T09:38:29;3.60;1.00
16479;DHT22;8350;52.316;10.530;2023-02-28T09:41:00;3.70;1.00
16479;DHT22;8350;52.316;10.530;2023-02-28T09:43:32;3.70;99.90
16479;DHT22;8350;52.316;10.530;2023-02-28T09:46:05;3.80;1.00
16479;DHT22;8350;52.316;10.530;2023-02-28T09:48:41;3.80;99.90
16479;DHT22;8350;52.316;10.530;2023-02-28T09:51:22;3.80;1.00
16479;DHT22;8350;52.316;10.530;2023-02-28T09:53:53;3.80;99.90
16479;DHT22;8350;52.316;10.530;2023-02-28T09:56:31;3.80;99.90
16479;DHT22;8350;52.316;10.530;2023-02-28T09:59:02;3.80;99.90
16479;DHT22;8350;52.316;10.530;2023-02-28T10:01:35;3.80;99.90
16479;DHT22;8350;52.316;10.530;2023-02-28T10:04:14;3.90;99.90
16479;DHT22;8350;52.316;10.530;2023-02-28T10:06:48;4.00;99.90
16479;DHT22;8350;52.316;10.530;2023-02-28T10:09:19;4.10;99.90
16479;DHT22;8350;52.316;10.530;2023-02-28T10:11:51;4.10;99.90
16479;DHT22;8350;52.316;10.530;2023-02-28T10:14:19;4.10;98.10
16479;DHT22;8350;52.316;10.530;2023-02-28T10:16:50;4.10;1.00
16479;DHT22;8350;52.316;10.530;2023-02-28T10:19:25;4.10;1.00
16479;DHT22;8350;52.316;10.530;2023-02-28T10:21:56;4.20;1.00
16479;DHT22;8350;52.316;10.530;2023-02-28T10:24:28;4.30;1.00
16479;DHT22;8350;52.316;10.530;2023-02-28T10:26:59;4.40;99.90
16479;DHT22;8350;52.316;10.530;2023-02-28T10:29:27;4.40;99.90
16479;DHT22;8350;52.316;10.530;2023-02-28T10:32:02;4.40;99.90
16479;DHT22;8350;52.316;10.530;2023-02-28T10:34:31;4.50;99.90
16479;DHT22;8350;52.316;10.530;2023-02-28T10:36:59;4.80;99.90
16479;DHT22;8350;52.316;10.530;2023-02-28T10:39:38;5.00;1.00
16479;DHT22;8350;52.316;10.530;2023-02-28T10:42:05;5.10;1.00
16479;DHT22;8350;52.316;10.530;2023-02-28T10:44:47;5.10;1.00
16479;DHT22;8350;52.316;10.530;2023-02-28T10:47:15;5.20;1.00
16479;DHT22;8350;52.316;10.530;2023-02-28T10:49:49;5.40;99.90
16479;DHT22;8350;52.316;10.530;2023-02-28T10:52:33;5.50;1.00
16479;DHT22;8350;52.316;10.530;2023-02-28T10:55:19;5.70;99.90
16479;DHT22;8350;52.316;10.530;2023-02-28T10:57:46;5.60;99.90
16479;DHT22;8350;52.316;10.530;2023-02-28T11:00:16;5.50;1.00
16479;DHT22;8350;52.316;10.530;2023-02-28T11:02:44;5.20;1.00
16479;DHT22;8350;52.316;10.530;2023-02-28T11:05:28;5.20;1.00
16479;DHT22;8350;52.316;10.530;2023-02-28T11:07:59;5.30;1.00
16479;DHT22;8350;52.316;10.530;2023-02-28T11:10:30;5.20;99.90
16479;DHT22;8350;52.316;10.530;2023-02-28T11:13:01;5.30;99.90
16479;DHT22;8350;52.316;10.530;2023-02-28T11:15:30;5.20;1.00
16479;DHT22;8350;52.316;10.530;2023-02-28T11:18:00;5.10;1.00
16479;DHT22;8350;52.316;10.530;2023-02-28T11:20:33;4.80;1.00
16479;DHT22;8350;52.316;10.530;2023-02-28T11:23:03;4.60;17.60
16479;DHT22;8350;52.316;10.530;2023-02-28T11:25:32;4.70;27.20
16479;DHT22;8350;52.316;10.530;2023-02-28T11:28:01;4.70;1.00
16479;DHT22;8350;52.316;10.530;2023-02-28T11:30:33;4.60;1.00
16479;DHT22;8350;52.316;10.530;2023-02-28T11:33:01;4.60;99.90
16479;DHT22;8350;52.316;10.530;2023-02-28T11:35:36;4.60;86.10
16479;DHT22;8350;52.316;10.530;2023-02-28T11:38:07;4.60;99.90
16479;DHT22;8350;52.316;10.530;2023-02-28T11:40:45;4.50;99.90
16479;DHT22;8350;52.316;10.530;2023-02-28T11:43:23;4.40;1.00
16479;DHT22;8350;52.316;10.530;2023-02-28T11:46:04;4.30;99.90
16479;DHT22;8350;52.316;10.530;2023-02-28T11:48:38;4.30;99.90
16479;DHT22;8350;52.316;10.530;2023-02-28T11:51:15;4.30;99.90
16479;DHT22;8350;52.316;10.530;2023-02-28T11:53:52;4.30;1.00
16479;DHT22;8350;52.316;10.530;2023-02-28T11:56:27;4.40;1.00
16479;DHT22;8350;52.316;10.530;2023-02-28T12:02:00;4.40;1.00
16479;DHT22;8350;52.316;10.530;2023-02-28T12:04:42;4.40;1.00
16479;DHT22;8350;52.316;10.530;2023-02-28T12:07:21;4.50;99.90
16479;DHT22;8350;52.316;10.530;2023-02-28T12:10:02;4.60;99.90
16479;DHT22;8350;52.316;10.530;2023-02-28T12:12:40;4.90;1.00
16479;DHT22;8350;52.316;10.530;2023-02-28T12:15:47;5.10;1.00
16479;DHT22;8350;52.316;10.530;2023-02-28T12:18:47;5.30;1.00
16479;DHT22;8350;52.316;10.530;2023-02-28T12:21:27;5.30;1.00
16479;DHT22;8350;52.316;10.530;2023-02-28T12:24:15;5.40;1.00
16479;DHT22;8350;52.316;10.530;2023-02-28T12:26:45;5.50;1.00
16479;DHT22;8350;52.316;10.530;2023-02-28T12:29:16;5.50;99.90
16479;DHT22;8350;52.316;10.530;2023-02-28T12:31:48;5.60;18.10
16479;DHT22;8350;52.316;10.530;2023-02-28T12:34:19;5.60;6.30
16479;DHT22;8350;52.316;10.530;2023-02-28T12:36:48;5.70;1.00
16479;DHT22;8350;52.316;10.530;2023-02-28T12:39:20;5.70;99.90
16479;DHT22;8350;52.316;10.530;2023-02-28T12:41:54;5.60;1.00
16479;DHT22;8350;52.316;10.530;2023-02-28T12:44:26;5.60;1.00
16479;DHT22;8350;52.316;10.530;2023-02-28T12:47:00;5.70;99.90
16479;DHT22;8350;52.316;10.530;2023-02-28T12:49:33;5.80;1.00
16479;DHT22;8350;52.316;10.530;2023-02-28T12:52:02;5.90;72.50
16479;DHT22;8350;52.316;10.530;2023-02-28T12:54:42;5.90;99.90
16479;DHT22;8350;52.316;10.530;2023-02-28T12:57:15;5.80;99.90
16479;DHT22;8350;52.316;10.530;2023-02-28T12:59:48;5.80;1.00
16479;DHT22;8350;52.316;10.530;2023-02-28T13:02:45;5.90;99.90
16479;DHT22;8350;52.316;10.530;2023-02-28T13:05:38;5.70;99.90
16479;DHT22;8350;52.316;10.530;2023-02-28T13:08:27;5.70;99.90
16479;DHT22;8350;52.316;10.530;2023-02-28T13:10:58;5.70;99.90
16479;DHT22;8350;52.316;10.530;2023-02-28T13:13:27;5.90;99.90
16479;DHT22;8350;52.316;10.530;2023-02-28T13:16:03;5.90;99.90
16479;DHT22;8350;52.316;10.530;2023-02-28T13:18:33;6.00;99.90
16479;DHT22;8350;52.316;10.530;2023-02-28T13:21:03;6.10;1.00
16479;DHT22;8350;52.316;10.530;2023-02-28T13:23:59;6.10;1.00
16479;DHT22;8350;52.316;10.530;2023-02-28T13:29:35;6.00;99.90
16479;DHT22;8350;52.316;10.530;2023-02-28T13:32:28;6.30;1.00
16479;DHT22;8350;52.316;10.530;2023-02-28T13:35:15;6.50;99.90
16479;DHT22;8350;52.316;10.530;2023-02-28T13:44:02;6.10;1.00
16479;DHT22;8350;52.316;10.530;2023-02-28T13:46:32;6.00;99.90
16479;DHT22;8350;52.316;10.530;2023-02-28T13:49:23;6.10;1.00
16479;DHT22;8350;52.316;10.530;2023-02-28T13:51:51;6.30;1.00
16479;DHT22;8350;52.316;10.530;2023-02-28T13:54:27;6.20;1.00
16479;DHT22;8350;52.316;10.530;2023-02-28T13:57:08;6.10;1.00
16479;DHT22;8350;52.316;10.530;2023-02-28T13:59:46;6.10;99.90
16479;DHT22;8350;52.316;10.530;2023-02-28T14:02:40;5.80;99.90
16479;DHT22;8350;52.316;10.530;2023-02-28T14:05:15;5.70;99.90
16479;DHT22;8350;52.316;10.530;2023-02-28T14:07:46;5.80;1.00
16479;DHT22;8350;52.316;10.530;2023-02-28T14:10:23;5.90;1.00
16479;DHT22;8350;52.316;10.530;2023-02-28T14:12:59;6.00;1.00
16479;DHT22;8350;52.316;10.530;2023-02-28T14:15:46;6.10;1.00
16479;DHT22;8350;52.316;10.530;2023-02-28T14:18:19;6.20;1.00
16479;DHT22;8350;52.316;10.530;2023-02-28T14:20:47;6.10;1.00
16479;DHT22;8350;52.316;10.530;2023-02-28T14:23:21;6.00;1.00
16479;DHT22;8350;52.316;10.530;2023-02-28T14:25:58;5.90;1.00
16479;DHT22;8350;52.316;10.530;2023-02-28T14:28:43;5.80;1.00
16479;DHT22;8350;52.316;10.530;2023-02-28T14:31:16;5.80;1.00
16479;DHT22;8350;52.316;10.530;2023-02-28T14:34:05;5.80;1.00
16479;DHT22;8350;52.316;10.530;2023-02-28T14:36:40;5.80;1.00
16479;DHT22;8350;52.316;10.530;2023-02-28T14:39:10;5.90;1.00
16479;DHT22;8350;52.316;10.530;2023-02-28T14:41:41;5.90;53.20
16479;DHT22;8350;52.316;10.530;2023-02-28T14:44:16;5.80;1.00
16479;DHT22;8350;52.316;10.530;2023-02-28T14:46:44;5.70;77.60
16479;DHT22;8350;52.316;10.530;2023-02-28T14:49:19;5.70;1.00
16479;DHT22;8350;52.316;10.530;2023-02-28T14:51:49;5.80;99.90
16479;DHT22;8350;52.316;10.530;2023-02-28T14:54:20;5.80;1.00
16479;DHT22;8350;52.316;10.530;2023-02-28T14:56:50;5.70;1.00
16479;DHT22;8350;52.316;10.530;2023-02-28T14:59:28;5.60;1.00
16479;DHT22;8350;52.316;10.530;2023-02-28T15:02:16;5.60;99.90
16479;DHT22;8350;52.316;10.530;2023-02-28T15:04:52;5.70;99.90
16479;DHT22;8350;52.316;10.530;2023-02-28T15:07:20;5.60;1.00
16479;DHT22;8350;52.316;10.530;2023-02-28T15:10:07;5.50;99.90
16479;DHT22;8350;52.316;10.530;2023-02-28T15:12:35;5.50;26.30
16479;DHT22;8350;52.316;10.530;2023-02-28T15:15:02;5.50;1.00
16479;DHT22;8350;52.316;10.530;2023-02-28T15:17:32;5.50;1.00
16479;DHT22;8350;52.316;10.530;2023-02-28T15:20:02;5.50;99.90
16479;DHT22;8350;52.316;10.530;2023-02-28T15:22:34;5.50;99.90
16479;DHT22;8350;52.316;10.530;2023-02-28T15:25:03;5.50;99.90
16479;DHT22;8350;52.316;10.530;2023-02-28T15:27:32;5.50;99.90
16479;DHT22;8350;52.316;10.530;2023-02-28T15:30:03;5.60;1.00
16479;DHT22;8350;52.316;10.530;2023-02-28T15:32:34;5.50;1.00
16479;DHT22;8350;52.316;10.530;2023-02-28T15:35:25;5.50;1.00
16479;DHT22;8350;52.316;10.530;2023-02-28T15:37:56;5.40;1.00
16479;DHT22;8350;52.316;10.530;2023-02-28T15:40:26;5.30;1.00
16479;DHT22;8350;52.316;10.530;2023-02-28T15:43:04;5.30;1.00
16479;DHT22;8350;52.316;10.530;2023-02-28T15:45:37;5.30;1.00
16479;DHT22;8350;52.316;10.530;2023-02-28T15:48:14;5.30;1.00
16479;DHT22;8350;52.316;10.530;2023-02-28T15:50:44;5.30;1.00
16479;DHT22;8350;52.316;10.530;2023-02-28T15:53:16;5.20;99.90
16479;DHT22;8350;52.316;10.530;2023-02-28T15:55:44;5.20;1.00
16479;DHT22;8350;52.316;10.530;2023-02-28T15:58:12;5.00;99.90
16479;DHT22;8350;52.316;10.530;2023-02-28T16:00:39;5.00;1.00
16479;DHT22;8350;52.316;10.530;2023-02-28T16:03:23;5.00;1.00
16479;DHT22;8350;52.316;10.530;2023-02-28T16:06:12;4.90;1.00
16479;DHT22;8350;52.316;10.530;2023-02-28T16:08:47;4.90;1.00
16479;DHT22;8350;52.316;10.530;2023-02-28T16:11:16;4.90;1.00
16479;DHT22;8350;52.316;10.530;2023-02-28T16:13:43;4.90;1.00
16479;DHT22;8350;52.316;10.530;2023-02-28T16:16:15;4.70;99.90
16479;DHT22;8350;52.316;10.530;2023-02-28T16:18:42;4.70;1.00
16479;DHT22;8350;52.316;10.530;2023-02-28T16:21:10;4.60;1.00
16479;DHT22;8350;52.316;10.530;2023-02-28T16:23:37;4.50;1.00
16479;DHT22;8350;52.316;10.530;2023-02-28T16:26:04;4.30;99.90
16479;DHT22;8350;52.316;10.530;2023-02-28T16:28:33;4.30;99.90
16479;DHT22;8350;52.316;10.530;2023-02-28T16:31:01;4.20;1.00
16479;DHT22;8350;52.316;10.530;2023-02-28T16:33:29;4.00;1.00
16479;DHT22;8350;52.316;10.530;2023-02-28T16:35:56;3.80;99.90
16479;DHT22;8350;52.316;10.530;2023-02-28T16:38:44;3.70;1.00